createdAt,value
2018-08-04T00:00:50.109Z,59.00
2018-08-04T00:03:19.572Z,59.90
2018-08-04T00:05:49.040Z,59.90
2018-08-04T00:08:18.289Z,60.40
2018-08-04T00:10:48.783Z,60.90
2018-08-04T00:13:18.219Z,62.10
2018-08-04T00:15:47.561Z,63.30
2018-08-04T00:18:17.012Z,64.20
2018-08-04T00:20:46.624Z,64.50
2018-08-04T00:23:15.950Z,63.70
2018-08-04T00:25:45.381Z,64.10
2018-08-04T00:28:14.851Z,64.90
2018-08-04T00:30:44.407Z,65.20
2018-08-04T00:33:13.799Z,64.30
2018-08-04T00:35:43.193Z,63.70
2018-08-04T00:38:12.643Z,63.40
2018-08-04T00:40:42.140Z,63.60
2018-08-04T00:43:11.509Z,64.00
2018-08-04T00:45:40.973Z,64.30
2018-08-04T00:48:10.474Z,64.10
2018-08-04T00:50:39.944Z,64.50
2018-08-04T00:53:09.492Z,64.90
2018-08-04T00:55:38.974Z,65.30
2018-08-04T00:58:08.450Z,65.70
2018-08-04T01:00:37.613Z,64.50
2018-08-04T01:03:09.652Z,65.80
2018-08-04T01:05:38.837Z,66.10
2018-08-04T01:08:08.081Z,65.70
2018-08-04T01:10:37.300Z,64.90
2018-08-04T01:13:06.570Z,65.40
2018-08-04T01:15:35.902Z,65.80
2018-08-04T01:18:05.830Z,66.20
2018-08-04T01:20:34.930Z,66.40
2018-08-04T01:23:04.133Z,66.60
2018-08-04T01:25:33.285Z,67.10
2018-08-04T01:28:02.503Z,67.20
2018-08-04T01:30:31.614Z,66.90
2018-08-04T01:33:00.710Z,67.40
2018-08-04T01:35:29.922Z,67.80
2018-08-04T01:37:59.093Z,68.20
2018-08-04T01:40:28.304Z,68.20
2018-08-04T01:42:57.492Z,68.40
2018-08-04T01:45:26.578Z,68.80
2018-08-04T01:47:55.954Z,68.80
2018-08-04T01:50:25.224Z,69.20
2018-08-04T01:55:23.195Z,69.40
2018-08-04T01:57:52.734Z,69.40
2018-08-04T02:00:22.282Z,69.00
2018-08-04T02:02:52.082Z,69.60
2018-08-04T02:05:21.418Z,69.30
2018-08-04T02:07:50.687Z,69.40
2018-08-04T02:10:19.798Z,70.10
2018-08-04T02:12:48.879Z,69.70
2018-08-04T02:15:18.042Z,69.80
2018-08-04T02:17:47.094Z,69.90
2018-08-04T02:20:16.158Z,69.90
2018-08-04T02:22:45.166Z,70.10
2018-08-04T02:25:15.104Z,70.30
2018-08-04T02:27:44.226Z,70.20
2018-08-04T02:30:13.319Z,70.70
2018-08-04T02:32:42.420Z,70.50
2018-08-04T02:35:11.735Z,69.90
2018-08-04T02:37:41.980Z,70.00
2018-08-04T02:40:11.814Z,67.60
2018-08-04T02:42:40.923Z,66.70
2018-08-04T02:45:10.364Z,66.60
2018-08-04T02:47:39.530Z,66.90
2018-08-04T02:50:09.055Z,67.10
2018-08-04T02:52:38.318Z,67.40
2018-08-04T02:55:07.426Z,68.10
2018-08-04T02:57:36.584Z,68.10
2018-08-04T03:00:06.318Z,67.20
2018-08-04T03:02:35.578Z,66.80
2018-08-04T03:05:04.767Z,66.60
2018-08-04T03:07:33.918Z,66.80
2018-08-04T03:10:03.192Z,67.00
2018-08-04T03:12:32.327Z,67.60
2018-08-04T03:15:01.424Z,67.90
2018-08-04T03:17:30.652Z,68.00
2018-08-04T03:19:59.770Z,68.20
2018-08-04T03:22:28.857Z,68.20
2018-08-04T03:24:58.212Z,67.60
2018-08-04T03:27:27.458Z,67.20
2018-08-04T03:29:56.582Z,67.60
2018-08-04T03:32:25.768Z,67.60
2018-08-04T03:34:54.969Z,68.80
2018-08-04T03:37:24.135Z,68.20
2018-08-04T03:39:53.244Z,68.20
2018-08-04T03:42:24.415Z,68.10
2018-08-04T03:44:53.590Z,68.40
2018-08-04T03:47:22.667Z,68.70
2018-08-04T03:49:51.998Z,68.50
2018-08-04T03:52:21.325Z,68.30
2018-08-04T03:54:51.468Z,68.70
2018-08-04T03:57:21.569Z,68.90
2018-08-04T03:59:50.714Z,69.20
2018-08-04T04:02:21.155Z,69.60
2018-08-04T04:04:50.924Z,69.80
2018-08-04T04:07:23.215Z,69.90
2018-08-04T04:09:53.381Z,69.90
2018-08-04T04:12:24.496Z,70.10
2018-08-04T04:14:56.095Z,70.00
2018-08-04T04:17:27.015Z,70.10
2018-08-04T04:22:28.550Z,70.00
2018-08-04T04:24:58.875Z,70.10
2018-08-04T04:27:30.321Z,70.30
2018-08-04T04:30:01.550Z,70.20
2018-08-04T04:32:32.594Z,70.20
2018-08-04T04:35:03.545Z,70.10
2018-08-04T04:37:33.352Z,70.00
2018-08-04T04:40:05.049Z,70.20
2018-08-04T04:42:35.036Z,70.40
2018-08-04T04:45:05.354Z,70.70
2018-08-04T04:47:34.563Z,70.60
2018-08-04T04:50:05.888Z,70.90
2018-08-04T04:52:37.020Z,71.00
2018-08-04T04:55:06.427Z,69.70
2018-08-04T04:57:35.603Z,69.20
2018-08-04T05:00:07.979Z,69.70
2018-08-04T05:02:37.856Z,70.00
2018-08-04T05:05:11.525Z,68.80
2018-08-04T05:07:41.746Z,68.10
2018-08-04T05:10:10.968Z,68.10
2018-08-04T05:12:41.381Z,67.60
2018-08-04T05:15:14.457Z,67.20
2018-08-04T05:17:47.296Z,67.20
2018-08-04T05:20:18.575Z,66.80
2018-08-04T05:22:49.522Z,66.60
2018-08-04T05:25:21.485Z,66.40
2018-08-04T05:27:52.111Z,66.10
2018-08-04T05:30:27.715Z,66.20
2018-08-04T05:32:56.833Z,66.00
2018-08-04T05:35:27.188Z,65.60
2018-08-04T05:37:56.429Z,65.50
2018-08-04T05:40:25.728Z,65.20
2018-08-04T05:42:56.714Z,65.10
2018-08-04T05:45:27.008Z,65.20
2018-08-04T05:47:56.286Z,65.20
2018-08-04T05:50:27.966Z,65.50
2018-08-04T05:52:58.638Z,64.50
2018-08-04T05:55:28.937Z,64.60
2018-08-04T05:58:00.358Z,64.40
2018-08-04T06:00:29.425Z,63.90
2018-08-04T06:02:58.544Z,63.40
2018-08-04T06:05:28.769Z,63.10
2018-08-04T06:07:57.827Z,63.20
2018-08-04T06:10:27.111Z,63.30
2018-08-04T06:12:56.460Z,63.30
2018-08-04T06:15:25.722Z,63.20
2018-08-04T06:17:54.885Z,62.80
2018-08-04T06:20:24.957Z,63.30
2018-08-04T06:22:54.169Z,62.70
2018-08-04T06:25:24.029Z,62.40
2018-08-04T06:27:53.243Z,62.60
2018-08-04T06:30:22.661Z,62.40
2018-08-04T06:32:54.175Z,61.90
2018-08-04T06:35:23.316Z,62.00
2018-08-04T06:37:52.405Z,62.20
2018-08-04T06:40:23.618Z,62.20
2018-08-04T06:42:52.921Z,62.50
2018-08-04T06:45:22.137Z,62.50
2018-08-04T06:47:51.201Z,62.80
2018-08-04T06:50:20.549Z,63.10
2018-08-04T06:52:49.744Z,63.00
2018-08-04T06:55:19.153Z,62.90
2018-08-04T06:57:48.521Z,63.50
2018-08-04T07:00:20.397Z,62.50
2018-08-04T07:02:49.489Z,62.20
2018-08-04T07:05:18.701Z,62.10
2018-08-04T07:07:48.386Z,62.20
2018-08-04T07:10:17.936Z,61.60
2018-08-04T07:12:47.195Z,61.50
2018-08-04T07:15:16.496Z,61.10
2018-08-04T07:17:45.777Z,60.70
2018-08-04T07:20:15.102Z,60.60
2018-08-04T07:22:44.486Z,60.40
2018-08-04T07:25:13.713Z,60.50
2018-08-04T07:27:42.766Z,60.00
2018-08-04T07:30:14.120Z,60.00
2018-08-04T07:32:44.573Z,60.10
2018-08-04T07:35:13.806Z,60.50
2018-08-04T07:37:44.276Z,60.30
2018-08-04T07:40:16.887Z,60.00
2018-08-04T07:42:46.156Z,60.60
2018-08-04T07:45:15.497Z,60.10
2018-08-04T07:47:44.730Z,59.90
2018-08-04T07:50:14.117Z,60.30
2018-08-04T07:52:43.370Z,60.60
2018-08-04T07:55:12.685Z,60.30
2018-08-04T07:57:41.963Z,60.00
2018-08-04T08:00:11.328Z,60.10
2018-08-04T08:02:40.515Z,60.10
2018-08-04T08:05:09.882Z,60.50
2018-08-04T08:10:07.872Z,60.50
2018-08-04T08:12:36.953Z,61.30
2018-08-04T08:15:09.833Z,60.10
2018-08-04T08:17:38.939Z,60.10
2018-08-04T08:20:08.197Z,59.90
2018-08-04T08:22:43.618Z,59.90
2018-08-04T08:25:12.976Z,59.90
2018-08-04T08:27:42.170Z,59.50
2018-08-04T08:32:42.553Z,59.30
2018-08-04T08:35:12.017Z,59.20
2018-08-04T08:37:41.544Z,59.00
2018-08-04T08:40:10.878Z,59.00
2018-08-04T08:42:39.959Z,58.60
2018-08-04T08:45:10.382Z,58.60
2018-08-04T08:47:39.541Z,58.40
2018-08-04T08:50:11.149Z,58.30
2018-08-04T08:52:40.541Z,58.00
2018-08-04T08:55:10.189Z,57.80
2018-08-04T08:57:39.477Z,58.10
2018-08-04T09:00:10.876Z,57.60
2018-08-04T09:02:40.272Z,57.50
2018-08-04T09:05:10.736Z,57.50
2018-08-04T09:07:40.200Z,57.10
2018-08-04T09:10:12.117Z,57.20
2018-08-04T09:12:42.206Z,56.60
2018-08-04T09:15:11.567Z,56.70
2018-08-04T09:17:40.653Z,56.60
2018-08-04T09:22:39.941Z,55.80
2018-08-04T09:25:09.743Z,55.00
2018-08-04T09:27:39.379Z,54.90
2018-08-04T09:30:11.293Z,54.80
2018-08-04T09:32:41.409Z,54.30
2018-08-04T09:35:10.944Z,54.30
2018-08-04T09:37:40.047Z,53.90
2018-08-04T09:40:12.445Z,53.50
2018-08-04T09:42:41.740Z,53.40
2018-08-04T09:45:11.025Z,53.20
2018-08-04T09:47:41.090Z,52.50
2018-08-04T09:50:12.056Z,52.50
2018-08-04T09:52:41.650Z,52.40
2018-08-04T09:55:11.678Z,52.10
2018-08-04T09:57:42.812Z,51.70
2018-08-04T10:00:17.482Z,51.00
2018-08-04T10:02:46.794Z,50.80
2018-08-04T10:05:16.048Z,50.60
2018-08-04T10:07:45.259Z,50.30
2018-08-04T10:10:14.622Z,50.20
2018-08-04T10:12:43.912Z,50.00
2018-08-04T10:15:13.278Z,49.60
2018-08-04T10:17:42.529Z,49.60
2018-08-04T10:20:12.468Z,49.20
2018-08-04T10:22:41.774Z,48.90
2018-08-04T10:25:11.014Z,48.30
2018-08-04T10:27:40.142Z,47.80
2018-08-04T10:30:11.526Z,47.20
2018-08-04T10:32:40.938Z,47.10
2018-08-04T10:35:10.136Z,47.10
2018-08-04T10:37:39.277Z,46.60
2018-08-04T10:40:08.548Z,46.40
2018-08-04T10:42:37.727Z,45.90
2018-08-04T10:45:07.639Z,45.40
2018-08-04T10:47:36.842Z,45.30
2018-08-04T10:50:06.763Z,45.10
2018-08-04T10:52:35.972Z,45.00
2018-08-04T10:55:05.239Z,44.00
2018-08-04T10:57:34.584Z,43.80
2018-08-04T11:00:03.795Z,43.30
2018-08-04T11:02:33.352Z,42.70
2018-08-04T11:05:02.698Z,42.60
2018-08-04T11:07:32.004Z,42.30
2018-08-04T11:10:01.273Z,42.00
2018-08-04T11:12:30.538Z,41.70
2018-08-04T11:14:59.858Z,41.20
2018-08-04T11:17:29.159Z,41.00
2018-08-04T11:19:58.986Z,41.20
2018-08-04T11:22:28.186Z,40.90
2018-08-04T11:25:00.474Z,40.40
2018-08-04T11:27:29.874Z,40.40
2018-08-04T11:29:59.009Z,39.90
2018-08-04T11:32:28.154Z,39.50
2018-08-04T11:34:57.281Z,39.00
2018-08-04T11:37:27.336Z,39.00
2018-08-04T11:39:56.495Z,38.60
2018-08-04T11:42:25.924Z,37.70
2018-08-04T11:44:55.007Z,37.60
2018-08-04T11:47:24.155Z,35.90
2018-08-04T11:49:53.286Z,36.50
2018-08-04T11:52:22.520Z,36.00
2018-08-04T11:54:51.600Z,35.80
2018-08-04T11:57:20.696Z,35.60
2018-08-04T11:59:49.858Z,34.50
2018-08-04T12:02:19.020Z,34.50
2018-08-04T12:04:48.172Z,33.20
2018-08-04T12:07:17.320Z,33.10
2018-08-04T12:09:46.513Z,32.80
2018-08-04T12:12:15.644Z,32.70
2018-08-04T12:14:44.841Z,32.10
2018-08-04T12:17:14.174Z,31.60
2018-08-04T12:19:43.303Z,31.90
2018-08-04T12:22:12.573Z,32.00
2018-08-04T12:24:41.760Z,31.50
2018-08-04T12:27:11.163Z,31.60
2018-08-04T12:29:40.529Z,31.80
2018-08-04T12:32:09.735Z,31.10
2018-08-04T12:34:39.072Z,30.50
2018-08-04T12:37:08.415Z,30.60
2018-08-04T12:39:37.845Z,30.00
2018-08-04T12:42:07.397Z,29.40
2018-08-04T12:44:36.873Z,29.90
2018-08-04T12:47:06.240Z,29.80
2018-08-04T12:49:35.642Z,29.80
2018-08-04T12:52:04.774Z,29.70
2018-08-04T12:54:34.522Z,29.70
2018-08-04T12:57:03.974Z,29.50
2018-08-04T12:59:33.434Z,29.90
2018-08-04T13:02:02.537Z,30.60
2018-08-04T13:04:31.882Z,30.70
2018-08-04T13:07:01.017Z,30.70
2018-08-04T13:09:30.232Z,30.60
2018-08-04T13:11:59.390Z,30.70
2018-08-04T13:14:28.600Z,30.90
2018-08-04T13:16:57.782Z,30.50
2018-08-04T13:19:26.983Z,29.90
2018-08-04T13:21:56.171Z,29.80
2018-08-04T13:24:25.317Z,29.30
2018-08-04T13:26:54.550Z,29.10
2018-08-04T13:29:23.762Z,29.30
2018-08-04T13:31:52.890Z,29.30
2018-08-04T13:34:22.212Z,29.10
2018-08-04T13:36:51.524Z,29.10
2018-08-04T13:39:20.962Z,29.10
2018-08-04T13:41:50.159Z,29.10
2018-08-04T13:44:19.432Z,28.90
2018-08-04T13:46:48.905Z,28.90
2018-08-04T13:49:18.223Z,28.80
2018-08-04T13:51:47.476Z,28.90
2018-08-04T13:54:16.620Z,28.40
2018-08-04T13:56:45.715Z,28.40
2018-08-04T13:59:15.072Z,28.20
2018-08-04T14:01:44.312Z,28.50
2018-08-04T14:04:13.495Z,27.90
2018-08-04T14:06:42.688Z,27.30
2018-08-04T14:09:12.364Z,27.10
2018-08-04T14:11:41.604Z,26.80
2018-08-04T14:14:10.984Z,26.90
2018-08-04T14:16:40.234Z,27.10
2018-08-04T14:19:09.490Z,27.20
2018-08-04T14:21:38.728Z,27.30
2018-08-04T14:24:08.167Z,27.40
2018-08-04T14:26:37.343Z,27.90
2018-08-04T14:29:06.729Z,27.90
2018-08-04T14:31:36.069Z,27.80
2018-08-04T14:34:05.391Z,27.70
2018-08-04T14:36:34.667Z,27.60
2018-08-04T14:39:04.246Z,27.40
2018-08-04T14:41:33.519Z,27.20
2018-08-04T14:44:03.053Z,27.40
2018-08-04T14:46:32.356Z,27.60
2018-08-04T14:49:01.762Z,27.30
2018-08-04T14:51:31.063Z,27.40
2018-08-04T14:54:00.428Z,27.70
2018-08-04T14:56:29.794Z,27.80
2018-08-04T14:58:59.189Z,27.60
2018-08-04T15:01:28.359Z,27.60
2018-08-04T15:03:57.814Z,27.50
2018-08-04T15:06:27.112Z,27.30
2018-08-04T15:08:56.308Z,27.80
2018-08-04T15:11:25.616Z,26.90
2018-08-04T15:13:54.842Z,27.00
2018-08-04T15:16:24.027Z,27.10
2018-08-04T15:18:53.487Z,27.30
2018-08-04T15:21:22.714Z,27.20
2018-08-04T15:23:51.927Z,27.00
2018-08-04T15:26:21.117Z,27.10
2018-08-04T15:28:50.331Z,26.80
2018-08-04T15:31:19.513Z,27.20
2018-08-04T15:33:48.827Z,27.00
2018-08-04T15:36:18.040Z,26.90
2018-08-04T15:38:47.208Z,26.90
2018-08-04T15:41:16.461Z,26.80
2018-08-04T15:43:46.302Z,26.80
2018-08-04T15:46:15.530Z,26.90
2018-08-04T15:48:44.678Z,26.60
2018-08-04T15:51:13.819Z,26.40
2018-08-04T15:53:43.006Z,26.60
2018-08-04T15:56:12.156Z,27.40
2018-08-04T15:58:41.386Z,28.00
2018-08-04T16:01:10.553Z,28.10
2018-08-04T16:03:40.022Z,28.10
2018-08-04T16:06:09.442Z,28.20
2018-08-04T16:08:38.682Z,27.50
2018-08-04T16:11:07.983Z,26.90
2018-08-04T16:13:37.126Z,27.10
2018-08-04T16:16:06.271Z,27.60
2018-08-04T16:18:35.482Z,28.10
2018-08-04T16:21:04.708Z,28.40
2018-08-04T16:23:34.041Z,28.60
2018-08-04T16:26:03.403Z,28.50
2018-08-04T16:28:32.542Z,28.90
2018-08-04T16:31:01.742Z,29.00
2018-08-04T16:33:30.846Z,28.70
2018-08-04T16:36:00.013Z,28.60
2018-08-04T16:38:29.204Z,28.80
2018-08-04T16:40:58.406Z,29.10
2018-08-04T16:43:28.794Z,28.90
2018-08-04T16:45:58.011Z,28.70
2018-08-04T16:48:27.151Z,28.30
2018-08-04T16:50:56.383Z,28.10
2018-08-04T16:53:25.623Z,28.40
2018-08-04T16:55:55.817Z,29.40
2018-08-04T16:58:25.032Z,30.00
2018-08-04T17:00:54.243Z,30.50
2018-08-04T17:03:23.394Z,31.20
2018-08-04T17:05:52.530Z,31.70
2018-08-04T17:08:21.676Z,32.40
2018-08-04T17:10:50.765Z,32.90
2018-08-04T17:13:19.983Z,32.80
2018-08-04T17:15:49.069Z,33.20
2018-08-04T17:18:18.369Z,33.10
2018-08-04T17:20:47.384Z,34.00
2018-08-04T17:23:16.589Z,33.80
2018-08-04T17:25:45.756Z,34.00
2018-08-04T17:28:14.960Z,34.50
2018-08-04T17:30:44.130Z,34.80
2018-08-04T17:33:13.306Z,34.80
2018-08-04T17:35:42.571Z,35.10
2018-08-04T17:38:11.872Z,35.40
2018-08-04T17:40:41.148Z,35.60
2018-08-04T17:43:10.294Z,35.90
2018-08-04T17:45:39.399Z,36.20
2018-08-04T17:48:08.917Z,36.60
2018-08-04T17:50:38.380Z,36.90
2018-08-04T17:53:07.624Z,37.10
2018-08-04T17:55:36.847Z,37.40
2018-08-04T17:58:06.255Z,37.50
2018-08-04T18:00:35.496Z,37.70
2018-08-04T18:03:04.927Z,37.90
2018-08-04T18:05:34.107Z,37.90
2018-08-04T18:08:03.508Z,38.10
2018-08-04T18:10:32.676Z,38.40
2018-08-04T18:13:02.093Z,39.00
2018-08-04T18:15:31.283Z,38.90
2018-08-04T18:18:00.446Z,38.90
2018-08-04T18:20:30.523Z,39.20
2018-08-04T18:22:59.825Z,39.40
2018-08-04T18:25:28.899Z,39.80
2018-08-04T18:27:58.064Z,40.10
2018-08-04T18:30:27.292Z,40.30
2018-08-04T18:32:56.423Z,40.60
2018-08-04T18:35:25.588Z,40.70
2018-08-04T18:37:54.769Z,40.90
2018-08-04T18:40:24.081Z,41.10
2018-08-04T18:42:53.404Z,41.10
2018-08-04T18:45:22.623Z,41.30
2018-08-04T18:47:51.772Z,41.40
2018-08-04T18:50:20.900Z,41.70
2018-08-04T18:52:50.250Z,42.30
2018-08-04T18:55:19.287Z,42.60
2018-08-04T18:57:48.387Z,42.40
2018-08-04T19:00:17.499Z,42.60
2018-08-04T19:02:46.688Z,42.50
2018-08-04T19:05:15.798Z,42.90
2018-08-04T19:07:45.196Z,43.20
2018-08-04T19:10:14.295Z,43.90
2018-08-04T19:12:43.454Z,43.70
2018-08-04T19:15:12.536Z,44.30
2018-08-04T19:17:41.661Z,44.20
2018-08-04T19:20:10.794Z,44.60
2018-08-04T19:22:39.947Z,44.40
2018-08-04T19:25:09.223Z,44.70
2018-08-04T19:27:38.357Z,44.70
2018-08-04T19:30:08.031Z,45.00
2018-08-04T19:32:37.172Z,45.50
2018-08-04T19:35:06.396Z,46.20
2018-08-04T19:37:35.739Z,47.00
2018-08-04T19:40:05.053Z,48.00
2018-08-04T19:42:34.241Z,49.20
2018-08-04T19:45:03.426Z,50.00
2018-08-04T19:47:32.581Z,50.40
2018-08-04T19:50:01.761Z,51.30
2018-08-04T19:52:30.869Z,52.10
2018-08-04T19:55:00.046Z,52.50
2018-08-04T19:57:29.167Z,53.00
2018-08-04T19:59:58.332Z,53.70
2018-08-04T20:02:27.434Z,54.30
2018-08-04T20:04:56.703Z,54.90
2018-08-04T20:07:25.797Z,55.60
2018-08-04T20:09:54.939Z,55.40
2018-08-04T20:12:24.059Z,55.90
2018-08-04T20:14:53.307Z,56.30
2018-08-04T20:17:22.485Z,56.80
2018-08-04T20:19:51.564Z,57.10
2018-08-04T20:22:20.678Z,57.70
2018-08-04T20:24:49.833Z,57.80
2018-08-04T20:27:18.902Z,58.00
2018-08-04T20:29:48.013Z,58.70
2018-08-04T20:32:17.158Z,59.10
2018-08-04T20:34:46.484Z,59.60
2018-08-04T20:37:15.598Z,59.80
2018-08-04T20:39:44.712Z,60.20
2018-08-04T20:42:13.852Z,60.70
2018-08-04T20:44:43.141Z,60.20
2018-08-04T20:49:40.983Z,61.40
2018-08-04T20:52:10.090Z,61.60
2018-08-04T20:54:39.270Z,61.70
2018-08-04T20:57:08.353Z,62.40
2018-08-04T20:59:37.449Z,62.80
2018-08-04T21:02:06.729Z,63.50
2018-08-04T21:04:36.717Z,63.30
2018-08-04T21:07:06.558Z,63.40
2018-08-04T21:09:35.748Z,63.70
2018-08-04T21:12:04.940Z,63.10
2018-08-04T21:14:33.969Z,63.50
2018-08-04T21:17:03.048Z,64.00
2018-08-04T21:19:32.240Z,64.10
2018-08-04T21:22:01.327Z,64.70
2018-08-04T21:24:30.520Z,64.40
2018-08-04T21:26:59.756Z,64.70
2018-08-04T21:29:29.013Z,65.60
2018-08-04T21:31:58.132Z,65.40
2018-08-04T21:34:27.314Z,65.40
2018-08-04T21:36:56.393Z,65.80
2018-08-04T21:39:25.708Z,65.80
2018-08-04T21:41:54.761Z,66.20
2018-08-04T21:44:23.929Z,66.20
2018-08-04T21:46:52.960Z,66.50
2018-08-04T21:51:51.495Z,67.10
2018-08-04T21:54:21.331Z,67.80
2018-08-04T21:56:50.420Z,67.60
2018-08-04T21:59:19.611Z,67.50
2018-08-04T22:01:57.068Z,68.00
2018-08-04T22:04:26.636Z,68.10
2018-08-04T22:08:03.866Z,68.50
2018-08-04T22:10:33.052Z,68.50
2018-08-04T22:13:02.481Z,68.70
2018-08-04T22:15:31.700Z,68.80
2018-08-04T22:18:00.825Z,69.00
2018-08-04T22:20:30.397Z,69.00
2018-08-04T22:22:59.511Z,69.20
2018-08-04T22:25:29.945Z,69.40
2018-08-04T22:27:59.616Z,69.60
2018-08-04T22:30:28.752Z,69.50
2018-08-04T22:32:57.870Z,69.60
2018-08-04T22:35:27.337Z,69.70
2018-08-04T22:37:56.400Z,69.90
2018-08-04T22:40:25.601Z,70.00
2018-08-04T22:42:54.685Z,70.20
2018-08-04T22:45:53.805Z,70.40
2018-08-04T22:48:23.295Z,70.50
2018-08-04T22:50:52.401Z,70.70
2018-08-04T22:53:21.531Z,70.90
2018-08-04T22:55:50.670Z,71.10
2018-08-04T22:58:20.081Z,71.30
2018-08-04T23:00:49.240Z,71.60
2018-08-04T23:03:18.327Z,71.60
2018-08-04T23:05:47.463Z,71.10
2018-08-04T23:08:16.958Z,71.10
2018-08-04T23:10:46.265Z,71.20
2018-08-04T23:13:16.113Z,71.40
2018-08-04T23:15:45.255Z,71.70
2018-08-04T23:18:14.417Z,72.20
2018-08-04T23:20:43.560Z,72.60
2018-08-04T23:23:13.573Z,73.10
2018-08-04T23:25:42.681Z,73.50
2018-08-04T23:28:11.793Z,74.00
2018-08-04T23:30:40.951Z,74.20
2018-08-04T23:33:10.069Z,74.60
2018-08-04T23:35:39.204Z,74.80
2018-08-04T23:38:08.293Z,75.10
2018-08-04T23:40:37.458Z,75.50
2018-08-04T23:43:06.585Z,75.70
2018-08-04T23:45:35.688Z,75.80
2018-08-04T23:48:04.836Z,76.20
2018-08-04T23:50:33.966Z,76.40
2018-08-04T23:53:03.123Z,76.60
2018-08-04T23:55:32.257Z,76.90
2018-08-04T23:58:01.608Z,77.00
